• Join FlightAware (Why Join?)
  • Login
  • US Flag 
10:57AM EDT


 

Airport Tracker/Info


-or-


 

Live Flight TrackerFlight Track Log ✈ SWA765 ✈ 09-May-2013 ✈ KMDW - KBNA

Flight Track Log - Related Links

Times and Time Zones

All times are in EDT time to prevent confusion due to time zone crossing. See the SWA765 flight status page for this flight to view local times or setup timezone preferences in your user account.

Time Position Orientation Groundspeed Altitude Reporting Facility
EDT Latitude Longitude Course Direction KTS MPH feet Rate Location/Type
10:46AM 41.8333 -87.7333 37° Northeast 223 257 3,500  Level Chicago TRACON
10:47AM 41.7667 -87.6833 151° Southeast 257 296 6,100 2,280 Climbing Chicago TRACON
10:49AM 41.6233 -87.6744 177° South 276 318 10,800 2,100 Climbing Chicago Center
10:50AM 41.5406 -87.6667 176° South 295 339 12,900 2,400 Climbing Chicago Center
10:51AM 41.4431 -87.6556 175° South 342 394 15,800 3,240 Climbing Chicago Center
10:52AM 41.3197 -87.6425 175° South 366 421 19,700 3,060 Climbing Chicago Center
10:53AM 41.2117 -87.6317 176° South 383 441 22,200 2,340 Climbing Chicago Center
10:54AM 41.0975 -87.6192 175° South 405 466 24,500 2,160 Climbing Chicago Center
10:56AM 40.9831 -87.6075 176° South 413 475 26,700 1,980 Climbing Chicago Center
10:57AM 40.8636 -87.5950 175° South 423 487 28,600 2,100 Climbing Chicago Center
10:58AM 40.7444 -87.5825 175° South 429 494 31,100 2,100 Climbing Chicago Center
10:59AM 40.6292 -87.5700 175° South 422 486 33,000 1,200 Climbing Chicago Center
11:00AM 40.4850 -87.5567 176° South 428 493 33,600 780 Climbing Chicago Center
11:01AM 40.3597 -87.5425 175° South 441 507 34,700 660 Climbing Chicago Center
11:02AM 40.2336 -87.5294 175° South 450 518 35,000 180 Climbing Chicago Center
11:03AM 40.1072 -87.5186 176° South 457 526 35,100 480 Climbing Chicago Center
11:04AM 39.9994 -87.5081 176° South 470 541 35,900 1,020 Climbing Indianapolis Center
11:05AM 39.8661 -87.4950 176° South 481 554 37,000 480 Climbing Indianapolis Center
11:06AM 39.7336 -87.4822 176° South 481 554 37,000 -540 Level Indianapolis Center
11:07AM 39.5769 -87.4672 176° South 475 547 36,000 -840 Descending Indianapolis Center
11:08AM 39.4467 -87.4542 176° South 474 545 35,300 -840 Descending Indianapolis Center
11:09AM 39.3203 -87.4428 176° South 465 535 34,300 -960 Descending Indianapolis Center
11:10AM 39.1964 -87.4294 175° South 452 520 33,400 -660 Descending Indianapolis Center
11:11AM 39.0703 -87.4178 176° South 443 510 33,000 -240 Descending Indianapolis Center
11:12AM 38.9489 -87.4064 176° South 437 503 33,000  Level Indianapolis Center
11:13AM 38.8267 -87.3942 176° South 439 505 33,000  Level Indianapolis Center
11:14AM 38.6811 -87.3806 176° South 437 503 33,000  Level Indianapolis Center
11:15AM 38.5597 -87.3694 176° South 437 503 33,000  Level Indianapolis Center
11:16AM 38.4386 -87.3578 176° South 438 504 33,000  Level Indianapolis Center
11:17AM 38.3181 -87.3472 176° South 440 506 33,000  Level Indianapolis Center
11:18AM 38.1978 -87.3356 176° South 439 505 33,000  Level Indianapolis Center
11:19AM 38.0528 -87.3208 175° South 438 504 33,000 -60 Level Indianapolis Center
11:20AM 37.9303 -87.3097 176° South 441 507 32,900 -1,080 Descending Indianapolis Center
11:21AM 37.8083 -87.2978 176° South 438 504 30,800 -2,160 Descending Indianapolis Center
11:22AM 37.6828 -87.2869 176° South 422 486 28,500 -2,220 Descending Indianapolis Center
11:23AM 37.5686 -87.2803 177° South 407 468 26,500 -2,040 Descending Memphis Center
11:24AM 37.4456 -87.2667 175° South 393 452 24,400 -1,620 Descending Memphis Center
11:25AM 37.3347 -87.2503 173° South 396 456 23,000 -720 Descending Memphis Center
11:26AM 37.2381 -87.2228 167° South 376 433 23,000 -240 Level Memphis Center
11:27AM 37.1372 -87.1928 167° South 380 437 22,600 -1,560 Descending Memphis Center
11:28AM 37.0283 -87.1633 168° South 389 448 19,900 -2,340 Descending Memphis Center
11:29AM 36.9253 -87.1339 167° South 387 445 18,000 -1,560 Descending Memphis Center
11:30AM 36.8225 -87.1042 167° South 368 423 16,800 -1,080 Descending Memphis Center
11:31AM 36.7378 -87.0508 153° Southeast 370 426 15,900 -1,140 Descending Memphis Center
11:32AM 36.6381 -86.9900 154° Southeast 365 420 14,600 -1,680 Descending Memphis Center
11:33AM 36.5492 -86.9369 154° Southeast 358 412 12,600 -2,220 Descending Memphis Center
11:34AM 36.4622 -86.8839 154° Southeast 352 405 10,200 -1,800 Descending Memphis Center
11:35AM 36.3878 -86.8356 152° Southeast 329 379 9,000 -1,260 Descending Memphis Center
11:36AM 36.3181 -86.7947 155° Southeast 319 367 7,700 -1,380 Descending Memphis Center
11:37AM 36.2436 -86.7517 155° Southeast 299 344 6,300 -1,200 Descending Memphis Center
11:38AM 36.1733 -86.7728 194° South 263 303 5,300 -780 Descending Memphis Center
11:39AM 36.1117 -86.7961 197° South 246 283 4,800 -900 Descending Memphis Center
11:40AM 36.0492 -86.7989 182° South 223 257 3,600 -1,020 Descending Memphis Center
11:41AM 36.0408 -86.7297 98° East 160 184 2,800 -1,140 Descending Memphis Center
11:42AM 36.0797 -86.7000 32° Northeast 121 139 1,400 -1,080 Descending Memphis Center
11:43AM 36.1147 -86.6881 15° North 117 135 700 3,780 Descending Memphis Center
11:44AM 36.1367 -86.6564 49° Northeast 117 135 9,000 8,280 Climbing Memphis Center
11:46AM 36.1167 -86.6667 219° Southwest  Level FlightAware Approximate
11:53AM 36.1245 -86.6782 219° Southwest  Level Estimated
11:54AM 36.1245 -86.6782 219° Southwest  Level Estimated
11:55AM 36.1245 -86.6782 219° Southwest  Level Estimated
11:56AM 36.1245 -86.6782 219° Southwest  Level Estimated
11:57AM 36.1245 -86.6782 219° Southwest  Level Estimated
11:58AM 36.1245 -86.6782 219° Southwest  Level Estimated
11:59AM 36.1245 -86.6782 219° Southwest  Level Estimated
12:00PM 36.1245 -86.6782 219° Southwest  Level Estimated